createdAt,value
2022-11-27T00:02:04.288Z,14.33
2022-11-27T00:04:48.237Z,14.00
2022-11-27T00:07:33.570Z,14.33
2022-11-27T00:10:17.874Z,13.33
2022-11-27T00:13:01.780Z,14.80
2022-11-27T00:15:46.032Z,14.57
2022-11-27T00:18:30.160Z,15.57
2022-11-27T00:21:16.364Z,15.23
2022-11-27T00:24:03.817Z,14.73
2022-11-27T00:26:49.866Z,14.20
2022-11-27T00:29:33.691Z,15.57
2022-11-27T00:32:17.504Z,15.07
2022-11-27T00:35:01.203Z,14.73
2022-11-27T00:37:44.940Z,14.57
2022-11-27T00:40:30.057Z,15.83
2022-11-27T00:43:13.838Z,15.27
2022-11-27T00:45:57.608Z,15.23
2022-11-27T00:48:41.410Z,14.80
2022-11-27T00:51:25.836Z,16.80
2022-11-27T00:54:09.862Z,15.30
2022-11-27T00:56:55.170Z,16.17
2022-11-27T00:59:39.169Z,15.73
2022-11-27T01:02:23.186Z,14.47
2022-11-27T01:05:08.006Z,15.37
2022-11-27T01:07:51.754Z,15.23
2022-11-27T01:10:35.573Z,14.90
2022-11-27T01:13:21.030Z,15.47
2022-11-27T01:16:07.406Z,14.93
2022-11-27T01:18:52.375Z,16.37
2022-11-27T01:21:36.667Z,15.07
2022-11-27T01:24:20.387Z,14.83
2022-11-27T01:27:04.277Z,17.30
2022-11-27T01:29:49.507Z,15.90
2022-11-27T01:32:33.417Z,16.17
2022-11-27T01:35:17.505Z,16.00
2022-11-27T01:38:01.530Z,14.90
2022-11-27T01:40:45.575Z,15.70
2022-11-27T01:43:42.085Z,15.90
2022-11-27T01:46:40.993Z,17.23
2022-11-27T01:49:30.953Z,16.70
2022-11-27T01:52:19.941Z,16.80
2022-11-27T01:55:09.056Z,16.00
2022-11-27T01:57:56.370Z,16.43
2022-11-27T02:00:40.797Z,15.70
2022-11-27T02:03:26.297Z,16.00
2022-11-27T02:06:13.345Z,16.43
2022-11-27T02:08:58.037Z,16.10
2022-11-27T02:11:50.571Z,16.60
2022-11-27T02:15:04.057Z,17.07
2022-11-27T02:17:53.417Z,15.47
2022-11-27T02:20:48.870Z,17.10
2022-11-27T02:24:23.200Z,15.70
2022-11-27T02:27:23.475Z,15.97
2022-11-27T02:30:09.765Z,16.30
2022-11-27T02:32:58.303Z,15.90
2022-11-27T02:35:49.382Z,15.43
2022-11-27T02:38:39.482Z,16.10
2022-11-27T02:41:29.526Z,15.70
2022-11-27T02:44:14.770Z,15.60
2022-11-27T02:47:00.749Z,16.03
2022-11-27T02:49:46.374Z,15.97
2022-11-27T02:52:32.529Z,15.23
2022-11-27T02:55:21.979Z,15.47
2022-11-27T02:58:10.534Z,15.87
2022-11-27T03:00:56.013Z,16.43
2022-11-27T03:03:45.826Z,16.10
2022-11-27T03:06:35.947Z,15.40
2022-11-27T03:09:25.629Z,15.43
2022-11-27T03:12:13.133Z,16.93
2022-11-27T03:14:57.189Z,16.40
2022-11-27T03:17:53.049Z,15.13
2022-11-27T03:20:42.271Z,16.40
2022-11-27T03:23:26.243Z,17.47
2022-11-27T03:26:10.293Z,15.83
2022-11-27T03:28:56.607Z,16.27
2022-11-27T03:31:41.310Z,17.27
2022-11-27T03:34:25.593Z,17.00
2022-11-27T03:37:11.408Z,18.43
2022-11-27T03:39:56.273Z,17.27
2022-11-27T03:42:52.965Z,18.27
2022-11-27T03:45:44.986Z,16.20
2022-11-27T03:48:36.715Z,16.70
2022-11-27T03:51:26.654Z,17.30
2022-11-27T03:54:22.238Z,17.03
2022-11-27T03:57:14.464Z,18.27
2022-11-27T04:00:03.818Z,18.77
2022-11-27T04:02:52.787Z,17.57
2022-11-27T04:05:36.859Z,17.97
2022-11-27T04:08:21.060Z,17.03
2022-11-27T04:11:06.608Z,17.67
2022-11-27T04:13:52.192Z,18.97
2022-11-27T04:16:36.037Z,18.23
2022-11-27T04:19:19.950Z,19.47
2022-11-27T04:22:03.726Z,18.73
2022-11-27T04:24:47.513Z,18.37
2022-11-27T04:27:32.665Z,20.83
2022-11-27T04:30:16.528Z,19.37
2022-11-27T04:33:00.226Z,19.13
2022-11-27T04:35:44.404Z,19.20
2022-11-27T04:38:28.227Z,19.50
2022-11-27T04:41:11.964Z,19.13
2022-11-27T04:43:57.070Z,19.47
2022-11-27T04:46:40.833Z,20.83
2022-11-27T04:49:24.718Z,19.40
2022-11-27T04:52:08.708Z,18.97
2022-11-27T04:54:58.352Z,19.13
2022-11-27T04:57:43.708Z,19.03
2022-11-27T05:00:28.984Z,18.00
2022-11-27T05:03:12.869Z,18.23
2022-11-27T05:05:57.607Z,19.80
2022-11-27T05:08:41.328Z,19.87
2022-11-27T05:11:25.033Z,19.13
2022-11-27T05:14:18.252Z,19.60
2022-11-27T05:17:03.811Z,19.10
2022-11-27T05:19:47.906Z,18.40
2022-11-27T05:22:32.282Z,17.73
2022-11-27T05:25:16.518Z,20.40
2022-11-27T05:28:00.547Z,19.57
2022-11-27T05:30:44.473Z,20.50
2022-11-27T05:33:29.849Z,21.57
2022-11-27T05:36:13.975Z,26.83
2022-11-27T05:38:57.947Z,21.50
2022-11-27T05:41:43.698Z,21.00
2022-11-27T05:44:28.380Z,19.50
2022-11-27T05:47:12.355Z,20.73
2022-11-27T05:49:57.741Z,17.00
2022-11-27T05:52:41.590Z,17.47
2022-11-27T05:55:25.657Z,20.07
2022-11-27T05:58:09.616Z,20.13
2022-11-27T06:00:54.021Z,20.00
2022-11-27T06:03:39.188Z,17.57
2022-11-27T06:06:24.680Z,17.27
2022-11-27T06:09:12.742Z,18.20
2022-11-27T06:11:57.426Z,18.80
2022-11-27T06:14:41.640Z,17.50
2022-11-27T06:17:26.196Z,19.90
2022-11-27T06:20:10.664Z,19.63
2022-11-27T06:22:57.478Z,17.33
2022-11-27T06:25:41.319Z,17.17
2022-11-27T06:28:25.086Z,17.97
2022-11-27T06:31:15.998Z,15.47
2022-11-27T06:34:02.061Z,18.30
2022-11-27T06:36:46.535Z,18.97
2022-11-27T06:39:31.766Z,19.30
2022-11-27T06:42:15.663Z,18.43
2022-11-27T06:44:59.529Z,21.03
2022-11-27T06:47:43.233Z,19.00
2022-11-27T06:50:27.214Z,22.70
2022-11-27T06:53:10.889Z,16.47
2022-11-27T06:55:55.958Z,17.73
2022-11-27T06:58:40.434Z,17.23
2022-11-27T07:01:25.925Z,14.37
2022-11-27T07:04:11.900Z,17.47
2022-11-27T07:06:56.042Z,16.63
2022-11-27T07:09:39.788Z,16.87
2022-11-27T07:12:24.872Z,15.53
2022-11-27T07:15:09.683Z,17.10
2022-11-27T07:17:53.605Z,15.50
2022-11-27T07:20:37.382Z,15.40
2022-11-27T07:23:21.235Z,14.27
2022-11-27T07:26:08.047Z,13.33
2022-11-27T07:28:53.453Z,13.53
2022-11-27T07:31:37.235Z,13.83
2022-11-27T07:34:21.881Z,16.20
2022-11-27T07:37:05.894Z,11.50
2022-11-27T07:40:04.733Z,17.87
2022-11-27T07:42:48.536Z,12.37
2022-11-27T07:45:35.753Z,10.33
2022-11-27T07:48:19.563Z,7.13
2022-11-27T07:51:03.526Z,9.60
2022-11-27T07:53:48.682Z,9.73
2022-11-27T07:56:32.647Z,10.80
2022-11-27T07:59:16.572Z,8.87
2022-11-27T08:02:01.864Z,9.07
2022-11-27T08:04:45.740Z,8.23
2022-11-27T08:07:30.404Z,9.20
2022-11-27T08:10:14.350Z,9.17
2022-11-27T08:12:58.765Z,9.40
2022-11-27T08:15:42.499Z,6.83
2022-11-27T08:18:27.774Z,8.83
2022-11-27T08:21:11.520Z,7.50
2022-11-27T08:23:55.397Z,8.30
2022-11-27T08:26:39.240Z,8.27
2022-11-27T08:29:23.331Z,7.97
2022-11-27T08:32:07.856Z,8.20
2022-11-27T08:34:53.377Z,8.17
2022-11-27T08:37:37.595Z,7.20
2022-11-27T08:40:21.485Z,8.00
2022-11-27T08:43:05.480Z,8.87
2022-11-27T08:45:49.703Z,8.73
2022-11-27T08:48:33.602Z,9.60
2022-11-27T08:51:19.154Z,7.63
2022-11-27T08:54:03.692Z,9.00
2022-11-27T08:56:47.645Z,8.30
2022-11-27T08:59:31.901Z,7.73
2022-11-27T09:02:15.944Z,7.93
2022-11-27T09:04:59.973Z,8.33
2022-11-27T09:07:45.483Z,6.50
2022-11-27T09:10:29.458Z,6.70
2022-11-27T09:13:13.513Z,7.80
2022-11-27T09:15:58.417Z,7.03
2022-11-27T09:18:44.725Z,6.83
2022-11-27T09:21:31.495Z,8.00
2022-11-27T09:24:16.626Z,6.97
2022-11-27T09:27:00.375Z,7.37
2022-11-27T09:29:44.080Z,6.50
2022-11-27T09:32:27.879Z,6.77
2022-11-27T09:35:11.784Z,7.20
2022-11-27T09:37:55.662Z,6.27
2022-11-27T09:40:45.204Z,5.80
2022-11-27T09:43:31.737Z,5.73
2022-11-27T09:46:25.968Z,6.47
2022-11-27T09:49:14.973Z,5.20
2022-11-27T09:52:03.561Z,5.67
2022-11-27T09:54:55.022Z,7.20
2022-11-27T09:57:44.014Z,6.27
2022-11-27T10:00:28.298Z,6.33
2022-11-27T10:03:15.773Z,6.70
2022-11-27T10:06:10.125Z,7.43
2022-11-27T10:09:07.502Z,4.63
2022-11-27T10:11:58.051Z,7.67
2022-11-27T10:14:56.120Z,5.43
2022-11-27T10:17:43.325Z,6.23
2022-11-27T10:20:33.304Z,5.20
2022-11-27T10:23:25.778Z,5.50
2022-11-27T10:26:17.054Z,6.50
2022-11-27T10:29:06.047Z,6.10
2022-11-27T10:31:57.403Z,5.43
2022-11-27T10:34:44.720Z,4.10
2022-11-27T10:37:31.917Z,4.00
2022-11-27T10:40:23.900Z,4.40
2022-11-27T10:43:13.766Z,5.63
2022-11-27T10:46:01.704Z,5.87
2022-11-27T10:48:46.895Z,4.23
2022-11-27T10:51:33.893Z,4.13
2022-11-27T10:54:25.019Z,4.73
2022-11-27T10:57:39.138Z,3.57
2022-11-27T11:00:25.180Z,3.83
2022-11-27T11:03:18.931Z,4.87
2022-11-27T11:06:23.209Z,6.70
2022-11-27T11:09:14.260Z,6.60
2022-11-27T11:12:08.772Z,6.20
2022-11-27T11:14:53.982Z,8.10
2022-11-27T11:17:38.523Z,5.90
2022-11-27T11:20:24.681Z,5.80
2022-11-27T11:23:22.241Z,5.87
2022-11-27T11:26:14.580Z,5.60
2022-11-27T11:29:00.625Z,5.87
2022-11-27T11:31:44.925Z,6.37
2022-11-27T11:34:30.671Z,6.70
2022-11-27T11:37:23.831Z,5.87
2022-11-27T11:40:24.830Z,5.30
2022-11-27T11:43:25.528Z,7.60
2022-11-27T11:46:19.118Z,5.70
2022-11-27T11:49:07.383Z,6.67
2022-11-27T11:52:24.639Z,6.77
2022-11-27T11:55:17.837Z,5.57
2022-11-27T11:58:34.917Z,6.07
2022-11-27T12:01:33.337Z,5.40
2022-11-27T12:04:43.029Z,5.00
2022-11-27T12:07:41.422Z,5.40
2022-11-27T12:10:32.558Z,5.97
2022-11-27T12:13:33.188Z,5.63
2022-11-27T12:16:24.497Z,5.17
2022-11-27T12:19:31.539Z,6.00
2022-11-27T12:22:28.501Z,5.40
2022-11-27T12:25:27.575Z,6.80
2022-11-27T12:28:30.206Z,6.30
2022-11-27T12:31:24.477Z,7.07
2022-11-27T12:34:18.846Z,7.20
2022-11-27T12:37:19.721Z,6.63
2022-11-27T12:40:27.495Z,6.07
2022-11-27T12:43:24.541Z,6.03
2022-11-27T12:46:15.041Z,6.93
2022-11-27T12:49:04.121Z,7.10
2022-11-27T12:51:52.257Z,9.17
2022-11-27T12:54:42.833Z,7.87
2022-11-27T12:57:35.265Z,8.40
2022-11-27T13:00:23.148Z,8.80
2022-11-27T13:03:14.141Z,9.53
2022-11-27T13:06:05.762Z,7.83
2022-11-27T13:08:58.443Z,12.93
2022-11-27T13:11:43.163Z,7.57
2022-11-27T13:14:29.535Z,6.70
2022-11-27T13:17:18.155Z,5.53
2022-11-27T13:20:04.253Z,6.00
2022-11-27T13:22:49.493Z,5.70
2022-11-27T13:25:37.565Z,6.67
2022-11-27T13:28:32.131Z,6.13
2022-11-27T13:31:23.279Z,7.60
2022-11-27T13:34:12.966Z,7.73
2022-11-27T13:37:00.094Z,8.40
2022-11-27T13:39:44.257Z,9.20
2022-11-27T13:42:28.807Z,8.60
2022-11-27T13:45:22.334Z,6.50
2022-11-27T13:48:22.980Z,6.73
2022-11-27T13:51:10.732Z,7.77
2022-11-27T13:53:54.793Z,8.27
2022-11-27T13:56:39.120Z,6.67
2022-11-27T13:59:24.878Z,6.80
2022-11-27T14:02:09.410Z,6.77
2022-11-27T14:04:56.606Z,6.97
2022-11-27T14:07:45.257Z,6.33
2022-11-27T14:10:31.253Z,6.17
2022-11-27T14:13:15.189Z,7.07
2022-11-27T14:16:02.183Z,7.70
2022-11-27T14:18:52.193Z,8.20
2022-11-27T14:21:42.868Z,10.40
2022-11-27T14:24:37.023Z,7.40
2022-11-27T14:27:23.039Z,10.13
2022-11-27T14:30:22.838Z,9.60
2022-11-27T14:33:17.205Z,7.90
2022-11-27T14:36:02.747Z,9.63
2022-11-27T14:38:48.957Z,6.87
2022-11-27T14:41:34.221Z,6.63
2022-11-27T14:44:19.265Z,6.50
2022-11-27T14:47:06.178Z,9.03
2022-11-27T14:49:56.183Z,7.60
2022-11-27T14:52:40.567Z,9.43
2022-11-27T14:55:27.880Z,7.90
2022-11-27T14:58:20.261Z,8.93
2022-11-27T15:01:06.917Z,7.00
2022-11-27T15:03:56.978Z,10.10
2022-11-27T15:06:43.095Z,10.30
2022-11-27T15:09:32.648Z,8.30
2022-11-27T15:12:19.976Z,7.27
2022-11-27T15:15:09.017Z,9.80
2022-11-27T15:17:55.624Z,9.37
2022-11-27T15:20:42.232Z,10.37
2022-11-27T15:23:29.127Z,13.77
2022-11-27T15:26:18.824Z,10.43
2022-11-27T15:29:06.449Z,8.60
2022-11-27T15:31:54.994Z,9.20
2022-11-27T15:34:40.889Z,10.43
2022-11-27T15:37:32.490Z,11.90
2022-11-27T15:40:29.250Z,14.07
2022-11-27T15:43:16.349Z,11.90
2022-11-27T15:46:03.025Z,14.37
2022-11-27T15:48:53.238Z,13.07
2022-11-27T15:51:38.822Z,12.10
2022-11-27T15:54:24.838Z,11.23
2022-11-27T15:57:10.490Z,11.83
2022-11-27T15:59:56.243Z,14.27
2022-11-27T16:02:41.419Z,13.97
2022-11-27T16:05:32.293Z,11.43
2022-11-27T16:08:18.449Z,13.07
2022-11-27T16:11:04.989Z,13.93
2022-11-27T16:13:50.602Z,14.23
2022-11-27T16:16:36.600Z,18.90
2022-11-27T16:19:22.614Z,13.83
2022-11-27T16:22:13.656Z,14.53
2022-11-27T16:25:01.825Z,14.17
2022-11-27T16:27:49.112Z,17.33
2022-11-27T16:30:34.983Z,20.07
2022-11-27T16:33:22.489Z,18.47
2022-11-27T16:36:09.281Z,16.90
2022-11-27T16:38:57.827Z,18.70
2022-11-27T16:41:46.068Z,13.57
2022-11-27T16:44:32.817Z,14.63
2022-11-27T16:47:21.799Z,14.07
2022-11-27T16:50:09.048Z,16.73
2022-11-27T16:52:56.871Z,17.13
2022-11-27T16:55:51.631Z,14.77
2022-11-27T16:58:42.971Z,16.73
2022-11-27T17:01:32.988Z,19.40
2022-11-27T17:04:20.747Z,20.43
2022-11-27T17:07:09.683Z,18.30
2022-11-27T17:09:56.047Z,17.33
2022-11-27T17:12:44.464Z,18.10
2022-11-27T17:15:32.340Z,18.37
2022-11-27T17:18:19.697Z,16.90
2022-11-27T17:21:10.912Z,17.27
2022-11-27T17:23:59.632Z,20.80
2022-11-27T17:26:46.510Z,20.13
2022-11-27T17:29:36.453Z,21.63
2022-11-27T17:32:25.733Z,21.37
2022-11-27T17:35:12.353Z,21.43
2022-11-27T17:37:58.218Z,22.37
2022-11-27T17:40:46.761Z,22.53
2022-11-27T17:43:35.561Z,18.90
2022-11-27T17:46:24.602Z,20.53
2022-11-27T17:49:12.612Z,37.23
2022-11-27T17:52:04.869Z,19.87
2022-11-27T17:54:58.680Z,19.80
2022-11-27T17:57:44.741Z,19.67
2022-11-27T18:00:33.882Z,20.20
2022-11-27T18:03:21.026Z,21.97
2022-11-27T18:06:07.968Z,21.53
2022-11-27T18:08:56.891Z,24.60
2022-11-27T18:11:42.933Z,21.33
2022-11-27T18:14:29.869Z,25.43
2022-11-27T18:17:18.442Z,22.27
2022-11-27T18:20:06.081Z,21.77
2022-11-27T18:22:52.599Z,23.07
2022-11-27T18:25:47.587Z,24.80
2022-11-27T18:28:34.543Z,21.50
2022-11-27T18:31:21.896Z,20.30
2022-11-27T18:34:07.545Z,21.27
2022-11-27T18:36:58.333Z,24.30
2022-11-27T18:39:46.489Z,20.50
2022-11-27T18:42:35.129Z,21.60
2022-11-27T18:45:33.412Z,22.70
2022-11-27T18:48:21.398Z,20.37
2022-11-27T18:51:11.370Z,26.63
2022-11-27T18:54:10.698Z,26.47
2022-11-27T18:57:00.852Z,24.43
2022-11-27T18:59:49.305Z,24.73
2022-11-27T19:02:36.335Z,23.60
2022-11-27T19:05:22.183Z,20.90
2022-11-27T19:08:11.241Z,23.63
2022-11-27T19:11:02.826Z,23.43
2022-11-27T19:13:49.524Z,19.97
2022-11-27T19:16:40.373Z,20.03
2022-11-27T19:19:53.893Z,19.97
2022-11-27T19:22:33.312Z,16.93
2022-11-27T19:25:18.984Z,17.53
2022-11-27T19:28:06.266Z,16.00
2022-11-27T19:30:53.913Z,16.43
2022-11-27T19:33:41.005Z,17.63
2022-11-27T19:36:27.370Z,16.07
2022-11-27T19:39:19.307Z,19.53
2022-11-27T19:42:08.919Z,18.87
2022-11-27T19:44:57.194Z,20.30
2022-11-27T19:47:45.874Z,19.73
2022-11-27T19:50:30.385Z,14.87
2022-11-27T19:53:16.832Z,17.87
2022-11-27T19:56:02.607Z,17.40
2022-11-27T19:58:48.225Z,15.40
2022-11-27T20:01:35.478Z,17.67
2022-11-27T20:04:24.518Z,15.93
2022-11-27T20:07:11.465Z,16.43
2022-11-27T20:09:58.510Z,14.00
2022-11-27T20:12:44.503Z,14.30
2022-11-27T20:15:32.150Z,16.17
2022-11-27T20:18:19.441Z,14.50
2022-11-27T20:21:10.986Z,14.60
2022-11-27T20:23:58.160Z,17.10
2022-11-27T20:26:45.528Z,15.07
2022-11-27T20:29:35.849Z,14.80
2022-11-27T20:32:22.042Z,15.90
2022-11-27T20:35:09.904Z,14.97
2022-11-27T20:37:58.624Z,17.90
2022-11-27T20:40:44.448Z,14.47
2022-11-27T20:43:31.599Z,15.80
2022-11-27T20:46:21.246Z,14.77
2022-11-27T20:49:07.704Z,15.53
2022-11-27T20:51:57.769Z,14.87
2022-11-27T20:54:44.694Z,13.97
2022-11-27T20:57:31.162Z,15.70
2022-11-27T21:00:17.614Z,17.60
2022-11-27T21:03:02.625Z,16.47
2022-11-27T21:05:49.342Z,15.97
2022-11-27T21:08:36.578Z,17.30
2022-11-27T21:11:26.235Z,15.27
2022-11-27T21:14:13.672Z,13.60
2022-11-27T21:17:04.525Z,15.53
2022-11-27T21:19:52.530Z,16.60
2022-11-27T21:22:38.516Z,16.80
2022-11-27T21:25:27.546Z,15.17
2022-11-27T21:28:13.299Z,14.40
2022-11-27T21:31:06.815Z,16.43
2022-11-27T21:33:53.807Z,15.23
2022-11-27T21:36:40.466Z,14.20
2022-11-27T21:39:26.824Z,13.93
2022-11-27T21:42:13.522Z,14.27
2022-11-27T21:44:58.773Z,14.40
2022-11-27T21:47:43.935Z,13.83
2022-11-27T21:50:28.510Z,14.33
2022-11-27T21:53:13.676Z,15.67
2022-11-27T21:55:59.141Z,13.70
2022-11-27T21:58:45.966Z,15.93
2022-11-27T22:01:31.039Z,16.23
2022-11-27T22:04:16.055Z,15.40
2022-11-27T22:07:01.109Z,15.50
2022-11-27T22:09:45.574Z,15.43
2022-11-27T22:12:30.274Z,14.50
2022-11-27T22:15:16.509Z,13.20
2022-11-27T22:18:01.538Z,11.87
2022-11-27T22:20:46.685Z,13.40
2022-11-27T22:23:31.091Z,13.87
2022-11-27T22:26:17.320Z,16.07
2022-11-27T22:29:01.293Z,12.63
2022-11-27T22:31:46.951Z,13.40
2022-11-27T22:34:31.954Z,12.97
2022-11-27T22:37:16.435Z,13.80
2022-11-27T22:40:00.450Z,14.10
2022-11-27T22:42:44.414Z,17.00
2022-11-27T22:45:28.548Z,15.73
2022-11-27T22:48:14.172Z,11.67
2022-11-27T22:50:58.235Z,11.27
2022-11-27T22:53:42.311Z,12.00
2022-11-27T22:56:26.799Z,12.77
2022-11-27T22:59:31.709Z,12.37
2022-11-27T23:02:16.191Z,10.40
2022-11-27T23:05:01.961Z,10.30
2022-11-27T23:07:47.000Z,10.53
2022-11-27T23:10:30.979Z,9.57
2022-11-27T23:13:15.072Z,11.47
2022-11-27T23:15:59.087Z,10.20
2022-11-27T23:18:42.989Z,9.37
2022-11-27T23:21:28.214Z,8.77
2022-11-27T23:24:15.366Z,9.60
2022-11-27T23:26:59.327Z,10.60
2022-11-27T23:29:43.077Z,9.60
2022-11-27T23:32:26.927Z,10.10
2022-11-27T23:35:11.501Z,10.67
2022-11-27T23:37:56.802Z,9.57
2022-11-27T23:40:40.618Z,10.00
2022-11-27T23:43:24.469Z,9.70
2022-11-27T23:46:09.956Z,10.60
2022-11-27T23:48:55.691Z,11.03
2022-11-27T23:51:39.618Z,9.93
2022-11-27T23:54:24.852Z,13.20
2022-11-27T23:57:08.592Z,12.93
2022-11-27T23:59:52.515Z,9.60
